Time;durP1;ratioP1;P1;durP2;ratioP2;P2;SDS_P1;SDS_P2;PMS_P1;PMS_P2;Temp;Humidity;BMP_temperature;BMP_pressure;BME280_temperature;BME280_humidity;BME280_pressure;Samples;Min_cycle;Max_cycle;Signal;HPM_P1;HPM_P2
2022/08/28 00:00:39;;;;;;;5.10;1.63;;;23.50;99.90;;;;;;4993085;28;20602;-71
2022/08/28 00:03:09;;;;;;;2.40;1.20;;;23.60;99.90;;;;;;4993087;28;20194;-71
2022/08/28 00:05:38;;;;;;;2.57;1.30;;;23.60;99.90;;;;;;4993528;28;20186;-71
2022/08/28 00:08:07;;;;;;;2.03;1.20;;;23.60;99.90;;;;;;4999131;28;20217;-70
2022/08/28 00:10:38;;;;;;;2.03;1.13;;;23.70;99.90;;;;;;5005799;28;20205;-71
2022/08/28 00:13:07;;;;;;;2.70;1.10;;;23.50;99.90;;;;;;5016392;28;20695;-70
2022/08/28 00:15:37;;;;;;;3.83;1.40;;;23.80;99.90;;;;;;5016073;28;20174;-70
2022/08/28 00:18:06;;;;;;;2.70;1.27;;;23.60;99.90;;;;;;5015437;28;20192;-70
2022/08/28 00:20:35;;;;;;;2.67;1.37;;;23.90;99.90;;;;;;5015820;28;20224;-71
2022/08/28 00:23:04;;;;;;;2.90;1.20;;;24.10;99.90;;;;;;5016156;28;20166;-71
2022/08/28 00:25:33;;;;;;;1.70;0.93;;;24.20;99.90;;;;;;5015222;28;20186;-72
2022/08/28 00:28:05;;;;;;;1.63;0.97;;;24.70;99.90;;;;;;5015421;28;20178;-71
2022/08/28 00:30:40;;;;;;;2.70;1.33;;;24.90;99.90;;;;;;5015803;28;20507;-71
2022/08/28 00:33:12;;;;;;;1.63;1.30;;;24.80;99.90;;;;;;5015647;28;20212;-72
2022/08/28 00:35:42;;;;;;;1.80;1.27;;;24.70;99.90;;;;;;5011294;28;20247;-71
2022/08/28 00:38:12;;;;;;;3.67;1.23;;;24.70;99.90;;;;;;5013436;28;20205;-70
2022/08/28 00:40:43;;;;;;;4.20;1.67;;;24.40;99.90;;;;;;5013871;28;20324;-71
2022/08/28 00:43:32;;;;;;;3.43;1.67;;;24.40;99.90;;;;;;5014107;28;20231;-73
2022/08/28 00:46:02;;;;;;;2.97;1.53;;;24.90;99.90;;;;;;5013596;28;20193;-72
2022/08/28 00:48:31;;;;;;;2.27;1.60;;;24.70;99.90;;;;;;4996043;28;20182;-71
2022/08/28 00:53:47;;;;;;;1.97;1.50;;;24.50;99.90;;;;;;5014079;28;20276;-71
2022/08/28 00:56:18;;;;;;;2.00;1.40;;;24.20;99.90;;;;;;4996345;28;20216;-73
2022/08/28 00:58:49;;;;;;;1.93;1.47;;;24.40;99.90;;;;;;5013607;28;20633;-71
2022/08/28 01:01:18;;;;;;;2.07;1.67;;;23.60;99.90;;;;;;5013700;28;20658;-71
2022/08/28 01:03:46;;;;;;;2.23;1.63;;;22.90;99.90;;;;;;5004433;28;20220;-70
2022/08/28 01:06:19;;;;;;;4.97;1.80;;;23.30;99.90;;;;;;5033321;28;20760;-72
2022/08/28 01:08:49;;;;;;;4.90;1.80;;;22.60;99.90;;;;;;5029164;28;20189;-70
2022/08/28 01:11:18;;;;;;;6.53;2.30;;;23.30;99.90;;;;;;5013003;28;20691;-70
2022/08/28 01:13:47;;;;;;;4.67;2.13;;;23.10;99.90;;;;;;5012909;28;20264;-71
2022/08/28 01:16:18;;;;;;;4.80;2.20;;;23.80;99.90;;;;;;5013317;28;20181;-69
2022/08/28 01:18:48;;;;;;;3.20;1.70;;;23.90;99.90;;;;;;5013196;28;20578;-71
2022/08/28 01:21:36;;;;;;;4.43;2.00;;;24.40;99.90;;;;;;5013465;28;20228;-72
2022/08/28 01:24:09;;;;;;;2.13;1.80;;;24.40;99.90;;;;;;5003404;28;20221;-71
2022/08/28 01:26:37;;;;;;;7.33;1.93;;;24.70;99.90;;;;;;5012973;28;20178;-74
2022/08/28 01:29:07;;;;;;;2.57;1.90;;;24.80;99.90;;;;;;4995423;28;20197;-73
2022/08/28 01:31:36;;;;;;;3.53;1.97;;;25.00;99.90;;;;;;5013054;28;20169;-73
2022/08/28 01:34:04;;;;;;;2.70;1.83;;;24.70;99.90;;;;;;5012948;28;20253;-70
2022/08/28 01:36:32;;;;;;;3.47;1.87;;;23.30;99.90;;;;;;5012792;28;20173;-70
2022/08/28 01:39:15;;;;;;;3.47;2.23;;;23.20;99.90;;;;;;5012769;28;20188;-70
2022/08/28 01:41:45;;;;;;;6.47;1.93;;;23.40;99.90;;;;;;5012943;28;20188;-70
2022/08/28 01:44:15;;;;;;;3.73;2.10;;;24.00;99.90;;;;;;5012884;28;20232;-71
2022/08/28 01:46:43;;;;;;;3.03;1.80;;;24.70;99.90;;;;;;5012875;28;20522;-71
2022/08/28 01:49:11;;;;;;;3.57;1.90;;;25.30;99.90;;;;;;5011995;28;20699;-70
2022/08/28 01:51:40;;;;;;;2.37;1.90;;;24.30;99.90;;;;;;4994777;28;20194;-70
2022/08/28 01:54:09;;;;;;;2.90;1.80;;;24.40;99.90;;;;;;5012406;28;20221;-70
2022/08/28 01:56:36;;;;;;;2.33;1.93;;;24.10;99.90;;;;;;5012695;28;20261;-70
2022/08/28 01:59:06;;;;;;;2.20;1.70;;;24.00;99.90;;;;;;5012278;28;20178;-69
2022/08/28 02:01:34;;;;;;;3.00;1.73;;;23.70;99.90;;;;;;5012709;28;20192;-69
2022/08/28 02:04:03;;;;;;;2.67;1.70;;;23.90;99.90;;;;;;5012008;28;20208;-69
2022/08/28 02:06:31;;;;;;;2.93;1.93;;;23.90;99.90;;;;;;5012568;28;20647;-69
2022/08/28 02:08:59;;;;;;;3.30;1.77;;;23.60;99.90;;;;;;5012390;28;20258;-69
2022/08/28 02:11:31;;;;;;;3.40;1.87;;;23.80;99.90;;;;;;5012225;28;20233;-70
2022/08/28 02:14:00;;;;;;;2.03;1.50;;;24.20;99.90;;;;;;5011901;28;20221;-70
2022/08/28 02:16:28;;;;;;;2.30;1.93;;;25.00;99.90;;;;;;5012052;28;20178;-69
2022/08/28 02:18:56;;;;;;;1.93;1.53;;;24.70;99.90;;;;;;5012236;28;20636;-70
2022/08/28 02:21:24;;;;;;;5.23;2.10;;;25.30;99.90;;;;;;5011779;28;20235;-70
2022/08/28 02:23:52;;;;;;;3.43;1.60;;;25.30;99.90;;;;;;5011928;28;20189;-71
2022/08/28 02:26:22;;;;;;;2.43;1.90;;;25.40;99.90;;;;;;5012456;28;20185;-69
2022/08/28 02:28:50;;;;;;;2.93;1.33;;;25.70;99.90;;;;;;5012661;28;20688;-71
2022/08/28 02:31:17;;;;;;;3.10;1.50;;;25.50;99.90;;;;;;5011645;28;20244;-70
2022/08/28 02:33:46;;;;;;;4.83;1.50;;;25.40;99.90;;;;;;5009570;28;20210;-69
2022/08/28 02:36:14;;;;;;;3.20;2.07;;;25.40;99.90;;;;;;5013361;28;20174;-69
2022/08/28 02:38:43;;;;;;;2.33;1.53;;;25.20;99.90;;;;;;5013492;28;20174;-69
2022/08/28 02:41:12;;;;;;;4.37;2.00;;;25.00;99.90;;;;;;5013475;28;20176;-69
2022/08/28 02:43:40;;;;;;;6.17;1.90;;;25.00;99.90;;;;;;5013404;28;20186;-69
2022/08/28 02:46:07;;;;;;;2.80;1.70;;;24.80;99.90;;;;;;5013429;28;20209;-70
2022/08/28 02:48:37;;;;;;;2.27;1.67;;;24.20;99.90;;;;;;5013174;28;20193;-70
2022/08/28 02:51:08;;;;;;;3.63;1.70;;;24.30;99.90;;;;;;5013789;28;20185;-69
2022/08/28 02:53:37;;;;;;;4.17;1.60;;;24.90;99.90;;;;;;5013833;28;20749;-69
2022/08/28 02:56:06;;;;;;;2.43;1.70;;;25.20;99.90;;;;;;5013583;28;20178;-71
2022/08/28 02:58:34;;;;;;;2.73;1.30;;;25.00;99.90;;;;;;4995750;28;20220;-69
2022/08/28 03:01:04;;;;;;;3.33;1.50;;;24.10;99.90;;;;;;4995693;28;20183;-68
2022/08/28 03:03:32;;;;;;;1.40;1.07;;;23.30;99.90;;;;;;5013425;28;20250;-68
2022/08/28 03:06:00;;;;;;;6.17;1.77;;;23.90;99.90;;;;;;5013164;28;20174;-69
2022/08/28 03:08:28;;;;;;;2.40;1.40;;;24.70;99.90;;;;;;5013545;28;20645;-69
2022/08/28 03:10:56;;;;;;;2.07;1.23;;;25.20;99.90;;;;;;5012954;28;20209;-69
2022/08/28 03:13:24;;;;;;;2.73;1.40;;;25.90;99.90;;;;;;5013188;28;20277;-69
2022/08/28 03:15:52;;;;;;;3.00;1.17;;;26.40;99.90;;;;;;5013000;28;20229;-70
2022/08/28 03:18:19;;;;;;;2.23;1.20;;;26.80;99.90;;;;;;5013079;28;20178;-69
2022/08/28 03:20:47;;;;;;;2.43;1.23;;;25.60;99.90;;;;;;5013342;28;20261;-70
2022/08/28 03:23:26;;;;;;;1.43;1.10;;;24.60;99.90;;;;;;5013690;28;20616;-71
2022/08/28 03:25:56;;;;;;;1.10;0.80;;;24.00;99.90;;;;;;5012810;28;20182;-76
2022/08/28 03:28:38;;;;;;;2.60;1.37;;;24.30;99.90;;;;;;5013182;28;20651;-74
2022/08/28 03:31:14;;;;;;;3.33;1.10;;;24.50;99.90;;;;;;5013079;28;20182;-73
2022/08/28 03:33:42;;;;;;;2.37;1.10;;;23.60;99.90;;;;;;5013140;28;20270;-71
2022/08/28 03:36:13;;;;;;;3.30;1.07;;;23.60;99.90;;;;;;4995445;28;20592;-77
2022/08/28 03:38:41;;;;;;;2.63;1.30;;;23.90;99.90;;;;;;5013211;28;20220;-74
2022/08/28 03:41:18;;;;;;;3.20;1.23;;;24.60;99.90;;;;;;4997977;28;20575;-74
2022/08/28 03:43:45;;;;;;;2.60;1.40;;;24.90;99.90;;;;;;5016837;28;20264;-75
2022/08/28 03:46:17;;;;;;;1.90;0.80;;;24.70;99.90;;;;;;5016945;28;20253;-75
2022/08/28 03:48:47;;;;;;;1.97;1.00;;;24.40;99.90;;;;;;5016745;28;20631;-76
2022/08/28 03:51:19;;;;;;;2.73;1.10;;;24.00;99.90;;;;;;5016679;28;20180;-76
2022/08/28 03:53:48;;;;;;;7.23;1.20;;;23.80;99.90;;;;;;5016263;28;20572;-76
2022/08/28 03:56:21;;;;;;;1.50;0.93;;;23.60;99.90;;;;;;5016462;28;20685;-75
2022/08/28 03:58:51;;;;;;;2.00;1.00;;;23.30;99.90;;;;;;5016732;28;20200;-75
2022/08/28 04:01:20;;;;;;;4.53;1.33;;;23.60;99.90;;;;;;5016486;28;20186;-76
2022/08/28 04:03:47;;;;;;;3.07;1.10;;;24.40;99.90;;;;;;5016531;28;20229;-74
2022/08/28 04:06:15;;;;;;;1.13;0.90;;;24.80;99.90;;;;;;5016191;28;20181;-75
2022/08/28 04:08:46;;;;;;;0.93;0.80;;;25.10;99.90;;;;;;5016070;28;20648;-74
2022/08/28 04:11:16;;;;;;;2.63;1.23;;;25.30;99.90;;;;;;5016034;28;20234;-75
2022/08/28 04:13:43;;;;;;;1.93;1.17;;;25.50;99.90;;;;;;5016070;28;20220;-75
2022/08/28 04:16:15;;;;;;;3.83;1.27;;;25.50;99.90;;;;;;5016342;28;20173;-76
2022/08/28 04:18:43;;;;;;;1.33;1.07;;;25.40;99.90;;;;;;5016646;28;20185;-74
2022/08/28 04:21:15;;;;;;;3.10;1.40;;;25.20;99.90;;;;;;5016142;28;20213;-75
2022/08/28 04:23:44;;;;;;;2.43;1.10;;;24.80;99.90;;;;;;5016587;28;20232;-77
2022/08/28 04:26:17;;;;;;;1.00;1.00;;;24.70;99.90;;;;;;5016155;28;20259;-76
2022/08/28 04:28:46;;;;;;;1.63;1.13;;;24.70;99.90;;;;;;5016102;28;20181;-75
2022/08/28 04:31:14;;;;;;;4.20;1.17;;;24.80;99.90;;;;;;4998351;28;20186;-76
2022/08/28 04:33:42;;;;;;;1.80;1.43;;;24.80;99.90;;;;;;5015739;28;20652;-75
2022/08/28 04:36:13;;;;;;;2.20;1.20;;;24.70;99.90;;;;;;5015906;28;20181;-75
2022/08/28 04:38:42;;;;;;;2.00;1.07;;;24.30;99.90;;;;;;5015121;28;20199;-75
2022/08/28 04:41:12;;;;;;;1.97;1.17;;;24.10;99.90;;;;;;4997637;28;20192;-70
2022/08/28 04:43:40;;;;;;;2.27;0.80;;;23.70;99.90;;;;;;5021217;28;20274;-70
2022/08/28 04:46:13;;;;;;;7.07;1.40;;;23.40;99.90;;;;;;4984812;28;20194;-69
2022/08/28 04:48:43;;;;;;;2.23;0.90;;;23.00;99.90;;;;;;5014733;28;20196;-70
2022/08/28 04:51:13;;;;;;;3.40;1.00;;;22.70;99.90;;;;;;5013232;28;20594;-70
2022/08/28 04:53:42;;;;;;;1.23;0.87;;;22.70;99.90;;;;;;5014041;28;20303;-69
2022/08/28 04:56:12;;;;;;;3.07;1.30;;;22.60;99.90;;;;;;5013794;28;20639;-70
2022/08/28 04:58:40;;;;;;;5.60;1.20;;;22.40;99.90;;;;;;5013520;28;20215;-70
2022/08/28 05:01:11;;;;;;;1.70;1.27;;;22.20;99.90;;;;;;5013775;28;20693;-69
2022/08/28 05:03:39;;;;;;;2.97;1.20;;;22.00;99.90;;;;;;4995809;28;20186;-70
2022/08/28 05:06:08;;;;;;;1.60;0.83;;;21.80;99.90;;;;;;4994708;28;20186;-70
2022/08/28 05:08:36;;;;;;;4.13;1.37;;;21.60;99.90;;;;;;5011122;28;20180;-71
2022/08/28 05:11:19;;;;;;;2.80;1.03;;;21.60;99.90;;;;;;5012727;28;20194;-69
2022/08/28 05:13:47;;;;;;;3.50;1.20;;;21.40;99.90;;;;;;5013658;28;20748;-70
2022/08/28 05:16:17;;;;;;;7.43;1.30;;;21.30;99.90;;;;;;4998039;28;20197;-69
2022/08/28 05:18:44;;;;;;;5.10;1.70;;;21.20;99.90;;;;;;4995292;28;20607;-70
2022/08/28 05:21:21;;;;;;;1.80;1.40;;;21.00;99.90;;;;;;5015377;28;20635;-71
2022/08/28 05:23:51;;;;;;;3.67;1.40;;;20.90;99.90;;;;;;5014992;28;20195;-68
2022/08/28 05:26:19;;;;;;;3.10;1.33;;;20.80;99.90;;;;;;5015580;28;20174;-71
2022/08/28 05:28:48;;;;;;;3.90;1.27;;;20.80;99.90;;;;;;4996549;28;20198;-69
2022/08/28 05:31:19;;;;;;;4.47;1.47;;;20.80;99.90;;;;;;5013005;28;20192;-69
2022/08/28 05:33:48;;;;;;;4.40;1.47;;;20.90;99.90;;;;;;5012720;28;20224;-69
2022/08/28 05:36:17;;;;;;;2.87;1.67;;;20.80;99.90;;;;;;4995714;28;20198;-70
2022/08/28 05:38:48;;;;;;;3.57;1.30;;;20.80;99.90;;;;;;5012224;28;20229;-70
2022/08/28 05:41:31;;;;;;;3.37;1.53;;;20.80;99.90;;;;;;5012853;28;20210;-69
2022/08/28 05:44:04;;;;;;;5.00;1.30;;;20.70;99.90;;;;;;5012595;28;20804;-71
2022/08/28 05:46:33;;;;;;;3.53;1.37;;;20.60;99.90;;;;;;4995090;28;20653;-70
2022/08/28 05:49:00;;;;;;;4.70;1.67;;;20.60;99.90;;;;;;5012813;28;20176;-70
2022/08/28 05:51:30;;;;;;;5.30;1.47;;;20.50;99.90;;;;;;5012794;28;20606;-69
2022/08/28 05:54:00;;;;;;;6.90;1.60;;;20.40;99.90;;;;;;4994255;28;20228;-71
2022/08/28 05:56:35;;;;;;;2.97;1.53;;;20.30;99.90;;;;;;5011938;28;20186;-70
2022/08/28 05:59:05;;;;;;;6.10;2.90;;;20.20;99.90;;;;;;5012270;28;20620;-71
2022/08/28 06:01:36;;;;;;;3.53;1.90;;;20.00;99.90;;;;;;5012110;28;20182;-70
2022/08/28 06:04:11;;;;;;;4.50;2.10;;;20.00;99.90;;;;;;5011342;28;20191;-70
2022/08/28 06:06:40;;;;;;;4.40;1.90;;;19.90;99.90;;;;;;5011691;28;20185;-68
2022/08/28 06:09:13;;;;;;;3.40;1.83;;;19.80;99.90;;;;;;5012032;28;20304;-70
2022/08/28 06:11:41;;;;;;;5.03;1.63;;;19.70;99.90;;;;;;5011924;28;20225;-70
2022/08/28 06:14:10;;;;;;;2.30;1.57;;;19.70;99.90;;;;;;5011739;28;20214;-72
2022/08/28 06:16:44;;;;;;;2.70;1.50;;;19.70;99.90;;;;;;5011652;28;20228;-71
2022/08/28 06:19:12;;;;;;;3.60;1.70;;;19.70;99.90;;;;;;4994524;28;20574;-71
2022/08/28 06:21:41;;;;;;;6.57;1.50;;;19.70;99.90;;;;;;5011799;28;20185;-72
2022/08/28 06:24:10;;;;;;;3.50;1.53;;;19.60;99.90;;;;;;5011637;28;20194;-71
2022/08/28 06:26:38;;;;;;;2.33;1.33;;;19.50;99.90;;;;;;5011765;28;20167;-71
2022/08/28 06:29:09;;;;;;;3.83;1.60;;;19.50;99.90;;;;;;5011836;28;20185;-71
2022/08/28 06:31:37;;;;;;;3.00;1.33;;;19.40;99.90;;;;;;5011737;28;20190;-69
2022/08/28 06:34:05;;;;;;;1.93;1.40;;;19.30;99.90;;;;;;5011760;28;20220;-70
2022/08/28 06:36:37;;;;;;;2.20;1.30;;;19.20;99.90;;;;;;5011526;28;20592;-70
2022/08/28 06:39:07;;;;;;;3.23;1.50;;;19.30;99.90;;;;;;5012040;28;20559;-70
2022/08/28 06:41:39;;;;;;;4.23;1.40;;;19.30;99.90;;;;;;5011915;28;20186;-70
2022/08/28 06:44:12;;;;;;;2.83;1.57;;;19.20;99.90;;;;;;5011722;28;20208;-70
2022/08/28 06:46:40;;;;;;;3.83;1.70;;;19.20;99.90;;;;;;5011325;28;20651;-71
2022/08/28 06:49:08;;;;;;;4.63;2.00;;;19.10;99.90;;;;;;5011716;28;20236;-71
2022/08/28 06:51:36;;;;;;;3.07;1.30;;;19.00;99.90;;;;;;5011430;28;20265;-71
2022/08/28 06:54:04;;;;;;;3.17;1.50;;;19.00;99.90;;;;;;5011589;28;20221;-71
2022/08/28 06:56:32;;;;;;;3.13;1.20;;;19.00;99.90;;;;;;4993663;28;20228;-72
2022/08/28 06:58:59;;;;;;;4.70;1.50;;;19.00;99.90;;;;;;5011354;28;20192;-70
2022/08/28 07:01:33;;;;;;;2.53;1.53;;;18.90;99.90;;;;;;5011379;28;20197;-71
2022/08/28 07:04:07;;;;;;;4.10;1.90;;;18.90;99.90;;;;;;5011230;28;20182;-71
2022/08/28 07:06:37;;;;;;;4.30;1.60;;;18.90;99.90;;;;;;5011682;28;20212;-71
2022/08/28 07:09:09;;;;;;;4.80;1.50;;;18.80;99.90;;;;;;5011687;28;20201;-71
2022/08/28 07:11:38;;;;;;;5.57;1.67;;;18.70;99.90;;;;;;5011001;28;20235;-69
2022/08/28 07:14:07;;;;;;;3.47;1.77;;;18.70;99.90;;;;;;4993728;28;20253;-70
2022/08/28 07:16:39;;;;;;;3.93;1.73;;;18.70;99.90;;;;;;5013414;28;20174;-70
2022/08/28 07:19:09;;;;;;;3.30;1.57;;;18.60;99.90;;;;;;5015364;28;20217;-70
2022/08/28 07:21:38;;;;;;;3.23;1.47;;;18.60;99.90;;;;;;5015735;28;20263;-70
2022/08/28 07:24:06;;;;;;;2.97;1.43;;;18.50;99.90;;;;;;5014628;28;20178;-69
2022/08/28 07:26:34;;;;;;;2.33;1.30;;;18.50;99.90;;;;;;5015425;28;20181;-71
2022/08/28 07:29:06;;;;;;;5.20;1.50;;;18.40;99.90;;;;;;5015360;28;20578;-70
2022/08/28 07:31:33;;;;;;;3.77;1.80;;;18.40;99.90;;;;;;5015331;28;20185;-71
2022/08/28 07:34:01;;;;;;;3.67;1.27;;;18.40;99.90;;;;;;5014941;28;20218;-71
2022/08/28 07:36:29;;;;;;;2.50;1.37;;;18.30;99.90;;;;;;4999233;28;20264;-71
2022/08/28 07:38:58;;;;;;;5.10;1.53;;;18.30;99.90;;;;;;5015419;28;20278;-70
2022/08/28 07:41:29;;;;;;;2.97;1.50;;;18.20;99.90;;;;;;5016613;28;20181;-70
2022/08/28 07:46:57;;;;;;;3.17;1.37;;;18.10;99.90;;;;;;4982399;28;20289;-70
2022/08/28 07:49:26;;;;;;;3.73;1.43;;;18.00;99.90;;;;;;5005112;28;20252;-70
2022/08/28 07:51:53;;;;;;;4.80;1.50;;;17.90;99.90;;;;;;5014666;28;20190;-70
2022/08/28 07:54:21;;;;;;;2.17;1.07;;;17.80;99.90;;;;;;4996418;28;20214;-71
2022/08/28 07:56:49;;;;;;;4.27;1.50;;;17.70;99.90;;;;;;5015569;28;20252;-71
2022/08/28 07:59:19;;;;;;;4.60;1.43;;;17.70;99.90;;;;;;5014753;28;20192;-71
2022/08/28 08:01:49;;;;;;;4.17;1.63;;;17.60;99.90;;;;;;5015158;28;20220;-71
2022/08/28 08:04:18;;;;;;;4.60;1.40;;;17.60;99.90;;;;;;4997207;28;20186;-71
2022/08/28 08:06:47;;;;;;;5.00;1.50;;;17.50;99.90;;;;;;5015858;28;20197;-71
2022/08/28 08:09:16;;;;;;;3.97;1.77;;;17.50;99.90;;;;;;5014107;28;20667;-72
2022/08/28 08:11:45;;;;;;;4.93;1.57;;;17.30;99.90;;;;;;5014329;28;20229;-71
2022/08/28 08:14:13;;;;;;;4.17;1.70;;;17.30;99.90;;;;;;5013117;28;20217;-72
2022/08/28 08:16:42;;;;;;;3.70;1.63;;;17.20;99.90;;;;;;5014583;28;20178;-70
2022/08/28 08:19:14;;;;;;;5.67;1.70;;;17.10;99.90;;;;;;5014169;28;20652;-70
2022/08/28 08:21:47;;;;;;;4.17;1.67;;;17.10;99.90;;;;;;5014598;28;20190;-71
2022/08/28 08:24:19;;;;;;;5.87;1.80;;;17.00;99.90;;;;;;4996067;28;20193;-72
2022/08/28 08:26:50;;;;;;;6.87;1.90;;;17.00;99.90;;;;;;4995049;28;20194;-72
2022/08/28 08:29:18;;;;;;;3.27;1.27;;;16.80;99.90;;;;;;5013871;28;20190;-70
2022/08/28 08:31:53;;;;;;;4.47;1.20;;;16.80;99.90;;;;;;5014275;28;20579;-71
2022/08/28 08:34:20;;;;;;;3.93;1.70;;;16.80;99.90;;;;;;5013968;28;20552;-71
2022/08/28 08:36:48;;;;;;;5.63;2.10;;;16.80;99.90;;;;;;5013990;28;20229;-71
2022/08/28 08:39:15;;;;;;;7.20;1.70;;;16.70;99.90;;;;;;4996500;28;20179;-72
2022/08/28 08:41:50;;;;;;;4.07;1.70;;;16.70;99.90;;;;;;5014324;28;20639;-71
2022/08/28 08:44:26;;;;;;;3.43;1.60;;;16.60;99.90;;;;;;5013518;28;20673;-70
2022/08/28 08:47:04;;;;;;;4.07;1.70;;;16.60;99.90;;;;;;5013629;28;20189;-72
2022/08/28 08:49:38;;;;;;;2.43;1.30;;;16.50;99.90;;;;;;4996177;28;20604;-71
2022/08/28 08:52:17;;;;;;;4.53;1.50;;;16.40;99.90;;;;;;5013418;28;20211;-72
2022/08/28 08:54:52;;;;;;;6.50;1.73;;;16.40;99.90;;;;;;5013484;28;20601;-72
2022/08/28 08:57:20;;;;;;;7.27;1.83;;;16.30;99.90;;;;;;5013657;28;20186;-71
2022/08/28 08:59:49;;;;;;;3.53;1.53;;;16.20;99.90;;;;;;5013327;28;20273;-71
2022/08/28 09:02:28;;;;;;;6.23;1.70;;;16.20;99.90;;;;;;5013495;28;20190;-70
2022/08/28 09:05:04;;;;;;;6.17;1.60;;;16.20;99.90;;;;;;5013347;28;20244;-70
2022/08/28 09:08:04;;;;;;;7.43;1.63;;;16.10;99.90;;;;;;5013499;28;20236;-71
2022/08/28 09:10:47;;;;;;;5.80;2.33;;;16.00;99.90;;;;;;5010010;28;20248;-71
2022/08/28 09:13:32;;;;;;;3.87;1.60;;;15.90;99.90;;;;;;5013417;28;20225;-70
2022/08/28 09:16:04;;;;;;;8.13;1.83;;;15.80;99.90;;;;;;5013380;28;20182;-68
2022/08/28 09:18:34;;;;;;;3.43;1.93;;;15.80;99.90;;;;;;4995621;28;20686;-70
2022/08/28 09:21:01;;;;;;;3.27;2.07;;;15.80;99.90;;;;;;5013266;28;20601;-71
2022/08/28 09:23:30;;;;;;;6.67;2.27;;;15.70;99.90;;;;;;5013216;28;20190;-71
2022/08/28 09:26:01;;;;;;;5.67;2.13;;;15.70;99.90;;;;;;5013230;28;20214;-71
2022/08/28 09:28:35;;;;;;;2.83;1.60;;;15.60;99.90;;;;;;5013068;28;20181;-70
2022/08/28 09:31:16;;;;;;;5.43;1.90;;;15.40;99.90;;;;;;5013100;28;20181;-71
2022/08/28 09:33:46;;;;;;;5.10;1.90;;;15.40;99.90;;;;;;5012895;28;20217;-72
2022/08/28 09:36:23;;;;;;;7.03;2.23;;;15.40;99.90;;;;;;4997964;28;20184;-71
2022/08/28 09:39:10;;;;;;;2.47;1.77;;;15.30;99.90;;;;;;5012676;28;20252;-71
2022/08/28 09:44:49;;;;;;;2.47;1.90;;;15.10;99.90;;;;;;5012695;28;20247;-72
2022/08/28 09:47:51;;;;;;;6.23;2.30;;;15.10;99.90;;;;;;5012774;28;20232;-71
2022/08/28 09:50:34;;;;;;;4.33;2.07;;;15.00;99.90;;;;;;5012002;28;20217;-73
2022/08/28 09:53:13;;;;;;;5.93;1.90;;;14.90;99.90;;;;;;5012502;28;20285;-71
2022/08/28 09:55:52;;;;;;;5.53;1.87;;;14.80;99.90;;;;;;4994180;28;20197;-72
2022/08/28 09:58:20;;;;;;;5.23;1.90;;;14.70;99.90;;;;;;5012855;28;20183;-73
2022/08/28 10:01:13;;;;;;;4.20;2.10;;;14.70;99.90;;;;;;5012285;28;20197;-70
2022/08/28 10:04:15;;;;;;;6.17;1.93;;;14.60;99.90;;;;;;5012030;28;20595;-71
2022/08/28 10:07:14;;;;;;;5.33;2.10;;;14.60;99.90;;;;;;4980776;28;20197;-72
2022/08/28 10:09:54;;;;;;;5.70;2.27;;;14.50;99.90;;;;;;4996078;28;20193;-71
2022/08/28 10:12:37;;;;;;;2.43;1.80;;;14.40;99.90;;;;;;4994758;28;20320;-72
2022/08/28 10:15:25;;;;;;;9.87;1.60;;;14.30;99.90;;;;;;5012154;28;20278;-71
2022/08/28 10:18:18;;;;;;;8.87;2.17;;;14.30;99.90;;;;;;5012279;28;20186;-71
2022/08/28 10:20:53;;;;;;;3.93;2.00;;;14.30;99.90;;;;;;4985145;28;20197;-71
2022/08/28 10:23:33;;;;;;;4.60;2.03;;;14.20;99.90;;;;;;5012395;28;20221;-72
2022/08/28 10:26:23;;;;;;;6.37;2.30;;;14.10;99.90;;;;;;5012103;28;20193;-71
2022/08/28 10:29:23;;;;;;;5.90;2.70;;;14.00;99.90;;;;;;5010114;28;20192;-71
2022/08/28 10:32:23;;;;;;;5.77;2.87;;;14.00;99.90;;;;;;5012329;28;20189;-72
2022/08/28 10:35:20;;;;;;;4.17;2.40;;;13.90;99.90;;;;;;4994083;28;20633;-71
2022/08/28 10:38:16;;;;;;;4.57;2.40;;;13.90;99.90;;;;;;4993262;28;20266;-71
2022/08/28 10:41:24;;;;;;;5.27;3.23;;;13.80;99.90;;;;;;4998036;28;20285;-72
2022/08/28 10:43:54;;;;;;;8.13;3.17;;;13.80;99.90;;;;;;4982074;28;20200;-73
2022/08/28 10:46:54;;;;;;;8.37;3.60;;;13.70;99.90;;;;;;5003195;28;20638;-71
2022/08/28 10:49:37;;;;;;;11.93;4.17;;;13.70;99.90;;;;;;4997090;28;20194;-71
2022/08/28 10:52:24;;;;;;;9.30;3.90;;;13.60;99.90;;;;;;5010878;28;20189;-72
2022/08/28 10:55:17;;;;;;;7.03;4.93;;;13.60;99.90;;;;;;5003158;28;20218;-72
2022/08/28 10:57:50;;;;;;;5.40;4.07;;;13.50;99.90;;;;;;5011979;28;20643;-70
2022/08/28 11:00:21;;;;;;;7.23;4.60;;;13.40;99.90;;;;;;5011195;28;20188;-71
2022/08/28 11:03:00;;;;;;;6.27;3.90;;;13.40;99.90;;;;;;4993475;28;20290;-70
2022/08/28 11:05:34;;;;;;;6.70;4.03;;;13.40;99.90;;;;;;5011217;28;20185;-72
2022/08/28 11:08:05;;;;;;;7.27;3.97;;;13.30;99.90;;;;;;5010923;28;20539;-74
2022/08/28 11:10:37;;;;;;;7.83;4.40;;;13.30;99.90;;;;;;5011841;28;20185;-72
2022/08/28 11:13:08;;;;;;;7.30;4.47;;;13.30;99.90;;;;;;5011463;28;20250;-72
2022/08/28 11:15:36;;;;;;;7.60;4.67;;;13.20;99.90;;;;;;5011466;28;20657;-73
2022/08/28 11:18:17;;;;;;;11.17;4.43;;;13.20;99.90;;;;;;5011974;28;20180;-70
2022/08/28 11:21:03;;;;;;;6.03;4.57;;;13.20;99.90;;;;;;5010177;28;20713;-71
2022/08/28 11:23:46;;;;;;;7.17;4.70;;;13.20;99.90;;;;;;5011248;28;20192;-70
2022/08/28 11:26:22;;;;;;;9.60;4.97;;;13.10;99.90;;;;;;4994048;28;20542;-71
2022/08/28 11:28:50;;;;;;;7.37;4.33;;;13.00;99.90;;;;;;5011196;28;20189;-71
2022/08/28 11:31:18;;;;;;;8.03;4.70;;;13.00;99.90;;;;;;5011648;28;20207;-71
2022/08/28 11:33:51;;;;;;;11.57;5.27;;;13.00;99.90;;;;;;5011417;28;20201;-71
2022/08/28 11:36:18;;;;;;;7.67;5.00;;;13.00;99.90;;;;;;5011513;28;20188;-70
2022/08/28 11:38:52;;;;;;;8.70;4.83;;;12.90;99.90;;;;;;5011234;28;20653;-71
2022/08/28 11:41:24;;;;;;;8.93;4.70;;;12.90;99.90;;;;;;5011640;28;20186;-70
2022/08/28 11:44:12;;;;;;;8.00;5.00;;;12.90;99.90;;;;;;5011520;28;20171;-69
2022/08/28 11:46:49;;;;;;;7.53;4.87;;;12.80;99.90;;;;;;4961285;28;20236;-70
2022/08/28 11:49:37;;;;;;;13.70;5.60;;;12.70;99.90;;;;;;4991864;28;20718;-71
2022/08/28 11:52:23;;;;;;;11.93;5.70;;;12.70;99.90;;;;;;4991767;28;20191;-71
2022/08/28 11:55:05;;;;;;;9.13;5.17;;;12.70;99.90;;;;;;4996747;28;20790;-73
2022/08/28 11:57:45;;;;;;;7.57;5.00;;;12.70;99.90;;;;;;5011478;28;20185;-72
2022/08/28 12:00:20;;;;;;;9.00;5.57;;;12.60;99.90;;;;;;5011061;28;20700;-72
2022/08/28 12:03:28;;;;;;;8.70;6.20;;;12.50;99.90;;;;;;5012286;28;20702;-72
2022/08/28 12:05:59;;;;;;;7.93;5.83;;;12.50;99.90;;;;;;4996280;28;20185;-72
2022/08/28 12:08:46;;;;;;;11.33;5.70;;;12.40;99.90;;;;;;4995912;28;20557;-69
2022/08/28 12:11:41;;;;;;;7.63;5.17;;;12.40;99.90;;;;;;5016097;28;20634;-72
2022/08/28 12:14:12;;;;;;;8.27;5.60;;;12.40;99.90;;;;;;5016477;28;20278;-73
2022/08/28 12:17:14;;;;;;;9.27;5.70;;;12.40;99.90;;;;;;5016135;28;20183;-72
2022/08/28 12:20:08;;;;;;;9.87;5.73;;;12.30;99.90;;;;;;4937157;29;20214;-72
2022/08/28 12:23:22;;;;;;;9.93;6.60;;;12.30;99.90;;;;;;5006141;28;20187;-71
2022/08/28 12:26:10;;;;;;;10.80;6.00;;;12.30;99.90;;;;;;5015903;28;20184;-71
2022/08/28 12:28:43;;;;;;;7.40;5.00;;;12.30;99.90;;;;;;5015862;28;20187;-70
2022/08/28 12:32:09;;;;;;;11.33;6.07;;;12.30;99.90;;;;;;5016029;28;20175;-71
2022/08/28 12:34:33;;;;;;;11.80;5.77;;;12.30;99.90;;;;;;5015184;28;20230;-70
2022/08/28 12:37:04;;;;;;;11.07;5.90;;;12.30;99.90;;;;;;4996188;28;20186;-71
2022/08/28 12:39:33;;;;;;;10.40;6.30;;;12.20;99.90;;;;;;4996376;28;20600;-68
2022/08/28 12:42:02;;;;;;;10.10;6.50;;;12.20;99.90;;;;;;4999948;28;20636;-70
2022/08/28 12:44:33;;;;;;;11.57;5.87;;;12.10;99.90;;;;;;4997709;28;20184;-72
2022/08/28 12:47:02;;;;;;;8.97;6.23;;;12.10;99.90;;;;;;5015425;28;20716;-70
2022/08/28 12:49:34;;;;;;;8.30;5.50;;;12.00;99.90;;;;;;4997267;28;20240;-71
2022/08/28 12:52:20;;;;;;;11.50;6.07;;;12.00;99.90;;;;;;5015342;28;20181;-69
2022/08/28 12:54:49;;;;;;;9.67;6.80;;;12.00;99.90;;;;;;5015384;28;20276;-70
2022/08/28 12:57:23;;;;;;;15.30;7.77;;;12.00;99.90;;;;;;5015385;28;20661;-71
2022/08/28 12:59:53;;;;;;;9.17;6.23;;;12.00;99.90;;;;;;5015394;28;20254;-71
2022/08/28 13:02:29;;;;;;;18.23;7.13;;;11.90;99.90;;;;;;5014892;28;20166;-71
2022/08/28 13:05:03;;;;;;;11.57;7.17;;;11.90;99.90;;;;;;5015449;28;20186;-70
2022/08/28 13:07:44;;;;;;;9.63;6.77;;;11.90;99.90;;;;;;5015210;28;20174;-69
2022/08/28 13:10:20;;;;;;;7.80;6.43;;;11.90;99.90;;;;;;5015434;28;20305;-71
2022/08/28 13:12:54;;;;;;;10.57;6.77;;;11.80;99.90;;;;;;4996262;28;20226;-71
2022/08/28 13:15:43;;;;;;;9.50;6.67;;;11.80;99.90;;;;;;5015437;28;20191;-72
2022/08/28 13:18:30;;;;;;;12.13;6.87;;;11.70;99.90;;;;;;5015568;28;20237;-71
2022/08/28 13:21:13;;;;;;;7.23;5.93;;;11.70;99.90;;;;;;5014939;28;20186;-71
2022/08/28 13:23:41;;;;;;;9.20;5.67;;;11.70;99.90;;;;;;5014626;28;20182;-72
2022/08/28 13:26:12;;;;;;;6.97;5.23;;;11.60;99.90;;;;;;5015347;28;20170;-70